createdAt,value
2018-06-24T00:00:29.201Z,68.37
2018-06-24T00:01:29.215Z,67.70
2018-06-24T00:02:29.230Z,67.89
2018-06-24T00:03:29.246Z,68.37
2018-06-24T00:04:29.264Z,68.37
2018-06-24T00:05:29.279Z,68.56
2018-06-24T00:06:29.299Z,67.61
2018-06-24T00:07:29.311Z,68.08
2018-06-24T00:08:29.328Z,67.41
2018-06-24T00:09:29.345Z,67.89
2018-06-24T00:10:29.360Z,67.61
2018-06-24T00:11:29.378Z,67.51
2018-06-24T00:12:29.396Z,67.80
2018-06-24T00:13:29.411Z,67.70
2018-06-24T00:14:29.426Z,67.61
2018-06-24T00:15:29.503Z,67.32
2018-06-24T00:16:29.462Z,67.32
2018-06-24T00:17:29.474Z,67.41
2018-06-24T00:18:29.493Z,67.13
2018-06-24T00:19:29.507Z,67.22
2018-06-24T00:20:29.525Z,66.56
2018-06-24T00:21:29.540Z,66.56
2018-06-24T00:22:29.559Z,66.46
2018-06-24T00:23:29.575Z,66.66
2018-06-24T00:24:29.591Z,67.13
2018-06-24T00:25:29.606Z,67.32
2018-06-24T00:26:29.624Z,67.41
2018-06-24T00:27:29.641Z,67.51
2018-06-24T00:28:29.657Z,67.51
2018-06-24T00:29:29.672Z,67.61
2018-06-24T00:30:29.688Z,67.80
2018-06-24T00:31:29.705Z,68.37
2018-06-24T00:32:29.721Z,67.67
2018-06-24T00:33:29.738Z,67.22
2018-06-24T00:34:29.753Z,67.61
2018-06-24T00:35:29.770Z,67.76
2018-06-24T00:36:29.786Z,67.89
2018-06-24T00:37:29.803Z,67.51
2018-06-24T00:38:29.820Z,67.70
2018-06-24T00:39:29.835Z,67.76
2018-06-24T00:40:29.853Z,67.80
2018-06-24T00:41:29.870Z,67.70
2018-06-24T00:42:29.883Z,67.80
2018-06-24T00:43:29.900Z,67.57
2018-06-24T00:44:29.920Z,68.33
2018-06-24T00:45:29.936Z,67.86
2018-06-24T00:46:29.949Z,68.43
2018-06-24T00:47:29.966Z,68.43
2018-06-24T00:48:29.984Z,67.67
2018-06-24T00:49:30.000Z,67.47
2018-06-24T00:50:30.015Z,67.76
2018-06-24T00:51:30.035Z,67.95
2018-06-24T00:52:30.049Z,67.67
2018-06-24T00:53:30.065Z,67.57
2018-06-24T00:54:30.080Z,67.67
2018-06-24T00:55:30.098Z,67.57
2018-06-24T00:56:30.113Z,67.57
2018-06-24T00:57:30.129Z,67.95
2018-06-24T00:58:30.146Z,67.47
2018-06-24T00:59:30.162Z,67.57
2018-06-24T01:00:30.178Z,67.86
2018-06-24T01:01:30.193Z,67.76
2018-06-24T01:02:30.208Z,67.67
2018-06-24T01:03:30.227Z,67.38
2018-06-24T01:04:30.247Z,67.57
2018-06-24T01:05:30.259Z,67.67
2018-06-24T01:06:30.275Z,68.33
2018-06-24T01:07:30.291Z,67.95
2018-06-24T01:08:30.307Z,68.81
2018-06-24T01:09:31.321Z,69.10
2018-06-24T01:10:30.339Z,68.81
2018-06-24T01:11:30.354Z,68.90
2018-06-24T01:12:30.371Z,69.10
2018-06-24T01:13:30.387Z,69.00
2018-06-24T01:14:30.401Z,69.00
2018-06-24T01:15:30.419Z,69.19
2018-06-24T01:16:30.436Z,69.29
2018-06-24T01:17:30.451Z,69.29
2018-06-24T01:18:30.468Z,69.67
2018-06-24T01:19:30.481Z,70.05
2018-06-24T01:20:30.499Z,70.52
2018-06-24T01:21:30.515Z,70.72
2018-06-24T01:22:30.531Z,71.38
2018-06-24T01:23:30.548Z,71.09
2018-06-24T01:24:30.565Z,71.57
2018-06-24T01:25:30.577Z,71.19
2018-06-24T01:26:30.595Z,70.90
2018-06-24T01:27:30.610Z,71.38
2018-06-24T01:28:30.628Z,71.00
2018-06-24T01:29:30.642Z,71.09
2018-06-24T01:30:30.658Z,70.81
2018-06-24T01:31:30.674Z,70.81
2018-06-24T01:32:30.691Z,70.72
2018-06-24T01:33:30.706Z,70.05
2018-06-24T01:34:30.722Z,70.43
2018-06-24T01:35:30.738Z,70.24
2018-06-24T01:36:30.754Z,70.24
2018-06-24T01:37:30.769Z,69.95
2018-06-24T01:38:30.785Z,69.95
2018-06-24T01:39:30.800Z,70.24
2018-06-24T01:40:30.820Z,70.33
2018-06-24T01:41:30.833Z,70.14
2018-06-24T01:42:30.848Z,70.14
2018-06-24T01:43:30.864Z,69.85
2018-06-24T01:44:30.882Z,69.48
2018-06-24T01:45:30.897Z,69.76
2018-06-24T01:46:30.914Z,69.85
2018-06-24T01:47:30.939Z,69.95
2018-06-24T01:48:30.946Z,70.24
2018-06-24T01:49:30.960Z,70.24
2018-06-24T01:50:30.976Z,70.62
2018-06-24T01:51:30.992Z,70.72
2018-06-24T01:52:31.010Z,71.09
2018-06-24T01:53:31.023Z,71.28
2018-06-24T01:54:31.042Z,71.47
2018-06-24T01:55:31.057Z,71.00
2018-06-24T01:56:31.069Z,70.90
2018-06-24T01:57:31.087Z,70.90
2018-06-24T01:58:31.102Z,71.19
2018-06-24T01:59:31.121Z,71.95
2018-06-24T02:00:31.136Z,71.67
2018-06-24T02:01:31.151Z,71.28
2018-06-24T02:02:31.166Z,71.38
2018-06-24T02:03:31.185Z,71.57
2018-06-24T02:04:31.197Z,70.62
2018-06-24T02:05:31.216Z,71.38
2018-06-24T02:06:31.229Z,71.28
2018-06-24T02:07:31.246Z,70.81
2018-06-24T02:08:31.262Z,70.81
2018-06-24T02:09:31.281Z,71.38
2018-06-24T02:10:31.344Z,71.38
2018-06-24T02:11:31.311Z,70.90
2018-06-24T02:12:31.326Z,71.47
2018-06-24T02:13:31.342Z,71.19
2018-06-24T02:14:31.359Z,71.19
2018-06-24T02:15:31.374Z,71.47
2018-06-24T02:16:31.389Z,71.09
2018-06-24T02:17:31.404Z,71.28
2018-06-24T02:18:31.421Z,71.19
2018-06-24T02:19:31.437Z,70.72
2018-06-24T02:20:31.455Z,71.09
2018-06-24T02:21:31.468Z,70.14
2018-06-24T02:22:31.486Z,70.33
2018-06-24T02:23:31.501Z,70.62
2018-06-24T02:24:31.523Z,70.43
2018-06-24T02:25:31.533Z,70.62
2018-06-24T02:26:31.548Z,70.52
2018-06-24T02:27:31.565Z,69.95
2018-06-24T02:28:31.584Z,70.14
2018-06-24T02:29:31.595Z,70.52
2018-06-24T02:30:31.615Z,70.62
2018-06-24T02:31:31.628Z,70.62
2018-06-24T02:32:31.647Z,70.33
2018-06-24T02:33:31.663Z,70.33
2018-06-24T02:34:31.677Z,70.33
2018-06-24T02:35:31.692Z,71.38
2018-06-24T02:36:31.709Z,71.57
2018-06-24T02:37:31.728Z,71.28
2018-06-24T02:38:31.740Z,71.09
2018-06-24T02:39:31.760Z,70.62
2018-06-24T02:40:31.773Z,70.33
2018-06-24T02:41:31.789Z,70.72
2018-06-24T02:42:31.808Z,70.33
2018-06-24T02:43:31.821Z,70.14
2018-06-24T02:44:31.839Z,70.14
2018-06-24T02:45:31.854Z,70.33
2018-06-24T02:46:31.875Z,71.28
2018-06-24T02:47:31.884Z,71.38
2018-06-24T02:48:31.940Z,71.47
2018-06-24T02:49:31.923Z,71.95
2018-06-24T02:50:31.933Z,71.76
2018-06-24T02:51:31.956Z,71.76
2018-06-24T02:52:31.967Z,72.24
2018-06-24T02:53:32.035Z,72.42
2018-06-24T02:54:31.998Z,72.42
2018-06-24T02:55:32.017Z,71.76
2018-06-24T02:56:32.029Z,71.95
2018-06-24T02:57:32.047Z,72.05
2018-06-24T02:58:32.062Z,71.57
2018-06-24T02:59:32.078Z,71.47
2018-06-24T03:00:32.093Z,71.57
2018-06-24T03:01:32.108Z,71.28
2018-06-24T03:02:32.126Z,70.90
2018-06-24T03:03:32.142Z,71.28
2018-06-24T03:04:32.158Z,71.09
2018-06-24T03:05:32.172Z,71.19
2018-06-24T03:06:32.187Z,71.09
2018-06-24T03:07:32.203Z,71.47
2018-06-24T03:08:32.221Z,71.28
2018-06-24T03:09:32.236Z,71.47
2018-06-24T03:10:32.254Z,70.72
2018-06-24T03:11:32.267Z,71.19
2018-06-24T03:12:32.286Z,70.62
2018-06-24T03:13:32.300Z,71.38
2018-06-24T03:14:32.315Z,71.09
2018-06-24T03:15:32.331Z,70.62
2018-06-24T03:16:32.347Z,71.28
2018-06-24T03:17:32.362Z,71.28
2018-06-24T03:18:32.379Z,71.00
2018-06-24T03:19:32.396Z,71.28
2018-06-24T03:20:32.410Z,71.00
2018-06-24T03:21:32.425Z,71.00
2018-06-24T03:22:32.441Z,71.00
2018-06-24T03:23:32.463Z,70.90
2018-06-24T03:24:32.475Z,71.19
2018-06-24T03:25:32.491Z,70.62
2018-06-24T03:26:32.506Z,70.72
2018-06-24T03:27:32.522Z,71.28
2018-06-24T03:28:32.539Z,70.81
2018-06-24T03:29:32.555Z,71.38
2018-06-24T03:30:32.573Z,71.57
2018-06-24T03:31:32.585Z,71.38
2018-06-24T03:32:32.601Z,70.90
2018-06-24T03:33:32.614Z,71.28
2018-06-24T03:34:32.634Z,71.19
2018-06-24T03:35:32.649Z,71.19
2018-06-24T03:36:32.667Z,71.38
2018-06-24T03:37:32.679Z,71.47
2018-06-24T03:38:32.696Z,71.47
2018-06-24T03:39:32.720Z,70.90
2018-06-24T03:40:32.729Z,71.38
2018-06-24T03:41:32.744Z,70.90
2018-06-24T03:42:32.760Z,71.57
2018-06-24T03:43:32.777Z,71.95
2018-06-24T03:44:32.792Z,71.86
2018-06-24T03:45:32.809Z,71.57
2018-06-24T03:46:32.826Z,71.57
2018-06-24T03:47:32.845Z,71.76
2018-06-24T03:48:32.856Z,72.52
2018-06-24T03:49:32.871Z,72.42
2018-06-24T03:50:32.889Z,72.71
2018-06-24T03:51:32.903Z,72.62
2018-06-24T03:52:32.921Z,72.42
2018-06-24T03:53:32.936Z,72.62
2018-06-24T03:54:32.959Z,72.52
2018-06-24T03:55:32.969Z,72.05
2018-06-24T03:56:32.985Z,71.86
2018-06-24T03:57:33.000Z,71.95
2018-06-24T03:58:33.016Z,71.95
2018-06-24T03:59:33.032Z,72.42
2018-06-24T04:00:33.051Z,72.52
2018-06-24T04:01:33.066Z,72.05
2018-06-24T04:02:33.081Z,72.05
2018-06-24T04:03:33.099Z,71.95
2018-06-24T04:04:33.111Z,71.57
2018-06-24T04:05:33.128Z,71.19
2018-06-24T04:06:33.144Z,71.67
2018-06-24T04:07:33.160Z,71.38
2018-06-24T04:08:33.175Z,71.86
2018-06-24T04:09:33.193Z,71.95
2018-06-24T04:10:33.208Z,72.52
2018-06-24T04:11:33.227Z,72.52
2018-06-24T04:12:33.243Z,71.86
2018-06-24T04:13:33.253Z,71.86
2018-06-24T04:14:33.270Z,72.05
2018-06-24T04:15:33.288Z,71.86
2018-06-24T04:16:33.307Z,71.28
2018-06-24T04:17:33.319Z,71.00
2018-06-24T04:18:33.336Z,70.81
2018-06-24T04:19:33.350Z,70.81
2018-06-24T04:20:33.369Z,71.09
2018-06-24T04:21:33.385Z,70.14
2018-06-24T04:22:33.400Z,69.67
2018-06-24T04:23:33.416Z,70.33
2018-06-24T04:24:33.430Z,70.05
2018-06-24T04:25:33.446Z,70.14
2018-06-24T04:26:33.462Z,70.05
2018-06-24T04:27:33.479Z,70.05
2018-06-24T04:28:33.501Z,70.72
2018-06-24T04:29:33.509Z,69.76
2018-06-24T04:30:33.528Z,69.57
2018-06-24T04:31:33.545Z,70.43
2018-06-24T04:32:33.559Z,71.19
2018-06-24T04:33:33.573Z,71.38
2018-06-24T04:34:33.589Z,71.57
2018-06-24T04:35:33.607Z,71.38
2018-06-24T04:36:33.624Z,71.67
2018-06-24T04:37:33.639Z,71.86
2018-06-24T04:38:33.655Z,71.67
2018-06-24T04:39:33.671Z,70.90
2018-06-24T04:40:33.689Z,71.47
2018-06-24T04:41:33.702Z,71.19
2018-06-24T04:42:33.719Z,71.86
2018-06-24T04:43:33.734Z,71.76
2018-06-24T04:44:33.753Z,71.86
2018-06-24T04:45:33.767Z,72.33
2018-06-24T04:46:33.783Z,71.86
2018-06-24T04:47:33.800Z,72.33
2018-06-24T04:48:33.817Z,72.24
2018-06-24T04:49:33.829Z,71.95
2018-06-24T04:50:33.847Z,71.86
2018-06-24T04:51:33.915Z,72.08
2018-06-24T04:52:33.879Z,71.89
2018-06-24T04:53:33.893Z,72.08
2018-06-24T04:54:33.911Z,71.89
2018-06-24T04:55:33.928Z,71.86
2018-06-24T04:56:33.944Z,72.27
2018-06-24T04:57:33.961Z,71.61
2018-06-24T04:58:33.983Z,71.32
2018-06-24T04:59:33.995Z,71.61
2018-06-24T05:00:34.009Z,71.13
2018-06-24T05:01:34.027Z,70.56
2018-06-24T05:02:34.042Z,70.37
2018-06-24T05:03:34.058Z,71.42
2018-06-24T05:04:34.076Z,71.98
2018-06-24T05:05:34.091Z,72.56
2018-06-24T05:06:34.142Z,74.18
2018-06-24T05:07:34.122Z,73.89
2018-06-24T05:08:34.140Z,71.80
2018-06-24T05:09:34.154Z,71.32
2018-06-24T05:10:34.173Z,71.89
2018-06-24T05:11:34.189Z,71.22
2018-06-24T05:12:34.204Z,70.94
2018-06-24T05:13:34.222Z,70.94
2018-06-24T05:14:34.236Z,70.18
2018-06-24T05:15:34.253Z,70.27
2018-06-24T05:16:34.268Z,69.89
2018-06-24T05:17:34.285Z,69.79
2018-06-24T05:18:34.307Z,69.99
2018-06-24T05:19:34.319Z,69.13
2018-06-24T05:20:34.337Z,69.51
2018-06-24T05:21:34.350Z,69.70
2018-06-24T05:22:34.366Z,70.18
2018-06-24T05:23:34.383Z,69.89
2018-06-24T05:24:34.401Z,69.83
2018-06-24T05:25:34.416Z,70.18
2018-06-24T05:26:34.434Z,70.31
2018-06-24T05:27:34.462Z,70.40
2018-06-24T05:28:34.466Z,70.78
2018-06-24T05:29:34.482Z,70.97
2018-06-24T05:30:34.498Z,71.26
2018-06-24T05:31:34.514Z,70.40
2018-06-24T05:32:34.532Z,68.50
2018-06-24T05:33:34.547Z,67.74
2018-06-24T05:34:34.564Z,67.83
2018-06-24T05:35:34.579Z,69.07
2018-06-24T05:36:34.597Z,69.83
2018-06-24T05:37:34.612Z,69.74
2018-06-24T05:38:34.631Z,69.17
2018-06-24T05:39:34.645Z,68.40
2018-06-24T05:40:34.664Z,66.69
2018-06-24T05:41:34.681Z,67.07
2018-06-24T05:42:34.703Z,67.74
2018-06-24T05:43:34.710Z,69.26
2018-06-24T05:44:34.730Z,69.54
2018-06-24T05:45:34.748Z,68.02
2018-06-24T05:46:34.767Z,68.88
2018-06-24T05:47:34.783Z,70.12
2018-06-24T05:48:34.797Z,68.78
2018-06-24T05:49:34.813Z,69.74
2018-06-24T05:50:34.829Z,71.93
2018-06-24T05:51:34.846Z,74.50
2018-06-24T05:52:34.864Z,73.26
2018-06-24T05:53:34.881Z,71.83
2018-06-24T05:54:34.898Z,72.12
2018-06-24T05:55:34.912Z,73.07
2018-06-24T05:56:34.932Z,72.50
2018-06-24T05:57:34.944Z,72.50
2018-06-24T05:58:34.965Z,75.84
2018-06-24T05:59:34.980Z,77.55
2018-06-24T06:00:34.997Z,78.31
2018-06-24T06:01:35.014Z,78.88
2018-06-24T06:02:35.031Z,80.02
2018-06-24T06:03:35.052Z,80.98
2018-06-24T06:04:35.063Z,80.50
2018-06-24T06:05:35.079Z,81.84
2018-06-24T06:06:35.098Z,80.50
2018-06-24T06:07:35.115Z,79.74
2018-06-24T06:08:35.130Z,81.46
2018-06-24T06:09:35.148Z,82.12
2018-06-24T06:10:35.165Z,83.93
2018-06-24T06:11:35.180Z,83.84
2018-06-24T06:12:35.198Z,82.79
2018-06-24T06:13:35.212Z,82.69
2018-06-24T06:14:35.236Z,84.79
2018-06-24T06:15:35.249Z,83.55
2018-06-24T06:16:35.264Z,83.74
2018-06-24T06:17:35.282Z,81.46
2018-06-24T06:18:35.296Z,80.69
2018-06-24T06:19:35.314Z,81.46
2018-06-24T06:20:35.329Z,78.50
2018-06-24T06:21:35.345Z,79.27
2018-06-24T06:22:35.361Z,80.12
2018-06-24T06:23:35.380Z,81.36
2018-06-24T06:24:35.396Z,80.22
2018-06-24T06:25:35.411Z,77.36
2018-06-24T06:26:35.430Z,76.98
2018-06-24T06:27:36.445Z,77.55
2018-06-24T06:28:35.463Z,79.27
2018-06-24T06:29:35.479Z,79.64
2018-06-24T06:30:35.495Z,80.50
2018-06-24T06:31:35.515Z,80.60
2018-06-24T06:32:35.528Z,83.26
2018-06-24T06:33:35.550Z,84.03
2018-06-24T06:34:35.565Z,84.12
2018-06-24T06:35:35.580Z,82.31
2018-06-24T06:36:35.595Z,85.50
2018-06-24T06:37:35.610Z,84.83
2018-06-24T06:38:35.630Z,84.26
2018-06-24T06:39:35.650Z,82.64
2018-06-24T06:40:35.665Z,83.31
2018-06-24T06:41:35.683Z,84.45
2018-06-24T06:42:35.697Z,85.12
2018-06-24T06:43:35.712Z,84.07
2018-06-24T06:44:35.728Z,83.69
2018-06-24T06:45:35.997Z,81.46
2018-06-24T06:46:35.762Z,79.64
2018-06-24T06:47:35.779Z,80.50
2018-06-24T06:48:35.795Z,81.93
2018-06-24T06:49:35.812Z,82.79
2018-06-24T06:50:35.832Z,80.79
2018-06-24T06:51:35.845Z,80.50
2018-06-24T06:52:35.862Z,80.88
2018-06-24T06:53:35.877Z,80.88
2018-06-24T06:54:35.895Z,80.73
2018-06-24T06:55:35.914Z,82.17
2018-06-24T06:56:35.931Z,81.12
2018-06-24T06:57:35.945Z,79.49
2018-06-24T06:58:35.963Z,76.64
2018-06-24T06:59:35.980Z,75.96
2018-06-24T07:00:35.999Z,74.73
2018-06-24T07:01:36.016Z,74.82
2018-06-24T07:02:36.033Z,76.16
2018-06-24T07:03:36.046Z,77.20
2018-06-24T07:04:36.067Z,75.78
2018-06-24T07:05:36.080Z,76.54
2018-06-24T07:06:36.094Z,76.06
2018-06-24T07:07:36.114Z,76.16
2018-06-24T07:08:36.129Z,76.54
2018-06-24T07:09:36.146Z,76.54
2018-06-24T07:10:36.162Z,76.92
2018-06-24T07:11:36.181Z,76.25
2018-06-24T07:12:36.198Z,75.59
2018-06-24T07:13:36.211Z,76.92
2018-06-24T07:14:36.229Z,75.01
2018-06-24T07:15:36.246Z,75.30
2018-06-24T07:16:36.262Z,75.96
2018-06-24T07:17:36.283Z,75.96
2018-06-24T07:18:36.295Z,76.64
2018-06-24T07:19:36.315Z,79.49
2018-06-24T07:20:36.329Z,81.21
2018-06-24T07:21:36.346Z,81.30
2018-06-24T07:22:36.362Z,83.02
2018-06-24T07:23:36.378Z,80.64
2018-06-24T07:24:36.398Z,79.59
2018-06-24T07:25:36.412Z,79.11
2018-06-24T07:26:36.429Z,79.11
2018-06-24T07:27:36.502Z,77.69
2018-06-24T07:28:36.463Z,79.68
2018-06-24T07:29:36.480Z,78.06
2018-06-24T07:30:36.497Z,80.54
2018-06-24T07:31:36.511Z,78.92
2018-06-24T07:32:36.529Z,82.17
2018-06-24T07:33:36.680Z,81.88
2018-06-24T07:34:36.563Z,79.68
2018-06-24T07:35:36.581Z,80.26
2018-06-24T07:36:36.596Z,80.26
2018-06-24T07:37:36.614Z,80.07
2018-06-24T07:38:36.661Z,82.54
2018-06-24T07:39:36.646Z,81.44
2018-06-24T07:40:36.662Z,81.25
2018-06-24T07:41:36.684Z,80.58
2018-06-24T07:42:36.697Z,78.58
2018-06-24T07:43:36.714Z,78.10
2018-06-24T07:44:36.730Z,81.54
2018-06-24T07:45:36.747Z,80.49
2018-06-24T07:46:36.762Z,81.82
2018-06-24T07:47:36.783Z,77.44
2018-06-24T07:48:36.803Z,77.91
2018-06-24T07:49:36.814Z,81.58
2018-06-24T07:50:36.835Z,79.38
2018-06-24T07:51:36.847Z,77.86
2018-06-24T07:52:36.864Z,80.05
2018-06-24T07:53:36.882Z,78.62
2018-06-24T07:54:36.897Z,76.04
2018-06-24T07:55:36.916Z,74.90
2018-06-24T07:56:36.932Z,74.61
2018-06-24T07:57:36.952Z,78.05
2018-06-24T07:58:36.970Z,76.52
2018-06-24T07:59:36.983Z,76.71
2018-06-24T08:00:37.000Z,76.33
2018-06-24T08:01:37.016Z,75.57
2018-06-24T08:02:37.038Z,75.57
2018-06-24T08:03:37.053Z,74.71
2018-06-24T08:04:37.072Z,82.24
2018-06-24T08:05:37.088Z,78.75
2018-06-24T08:06:37.107Z,75.60
2018-06-24T08:07:37.121Z,74.55
2018-06-24T08:08:37.145Z,73.94
2018-06-24T08:09:37.156Z,74.32
2018-06-24T08:10:37.171Z,73.18
2018-06-24T08:11:37.190Z,77.19
2018-06-24T08:12:37.211Z,75.76
2018-06-24T08:13:37.223Z,77.28
2018-06-24T08:14:37.241Z,71.94
2018-06-24T08:15:37.264Z,72.96
2018-06-24T08:16:37.277Z,74.86
2018-06-24T08:17:37.294Z,74.61
2018-06-24T08:18:37.310Z,74.61
2018-06-24T08:19:37.333Z,74.61
2018-06-24T08:20:37.345Z,74.80
2018-06-24T08:21:37.362Z,74.04
2018-06-24T08:22:38.383Z,75.09
2018-06-24T08:23:37.398Z,76.62
2018-06-24T08:24:37.414Z,74.99
2018-06-24T08:25:37.431Z,75.18
2018-06-24T08:26:37.448Z,74.61
2018-06-24T08:27:37.466Z,76.04
2018-06-24T08:28:37.494Z,75.76
2018-06-24T08:29:37.498Z,75.09
2018-06-24T08:30:37.518Z,76.01
2018-06-24T08:31:37.616Z,76.01
2018-06-24T08:32:37.553Z,77.76
2018-06-24T08:33:37.571Z,77.67
2018-06-24T08:34:37.587Z,79.57
2018-06-24T08:35:37.606Z,77.09
2018-06-24T08:36:37.622Z,75.76
2018-06-24T08:37:37.641Z,76.04
2018-06-24T08:38:37.656Z,74.80
2018-06-24T08:39:37.678Z,75.37
2018-06-24T08:40:37.692Z,74.19
2018-06-24T08:41:37.708Z,78.23
2018-06-24T08:42:37.728Z,84.72
2018-06-24T08:43:37.744Z,78.85
2018-06-24T08:44:37.763Z,76.94
2018-06-24T08:45:37.779Z,79.04
2018-06-24T08:46:37.796Z,72.26
2018-06-24T08:47:37.818Z,76.65
2018-06-24T08:48:37.837Z,75.79
2018-06-24T08:49:37.849Z,75.60
2018-06-24T08:50:37.867Z,73.22
2018-06-24T08:51:37.889Z,73.22
2018-06-24T08:52:37.901Z,72.42
2018-06-24T08:53:37.919Z,72.51
2018-06-24T08:54:37.937Z,75.66
2018-06-24T08:55:37.954Z,76.27
2018-06-24T08:56:37.974Z,73.60
2018-06-24T08:57:37.989Z,71.41
2018-06-24T08:58:38.008Z,70.73
2018-06-24T08:59:38.029Z,71.41
2018-06-24T09:00:38.079Z,69.87
2018-06-24T09:01:38.062Z,71.59
2018-06-24T09:02:38.079Z,73.73
2018-06-24T09:03:38.099Z,70.29
2018-06-24T09:04:38.116Z,70.20
2018-06-24T09:05:38.133Z,69.43
2018-06-24T09:06:38.149Z,72.20
2018-06-24T09:07:38.166Z,71.67
2018-06-24T09:08:38.187Z,73.39
2018-06-24T09:09:39.203Z,68.61
2018-06-24T09:10:38.222Z,64.98
2018-06-24T09:11:38.245Z,68.32
2018-06-24T09:12:38.261Z,66.95
2018-06-24T09:13:38.366Z,68.10
2018-06-24T09:14:38.296Z,67.27
2018-06-24T09:15:38.328Z,67.75
2018-06-24T09:16:38.330Z,66.50
2018-06-24T09:17:38.347Z,67.84
2018-06-24T09:18:38.366Z,65.04
2018-06-24T09:19:38.384Z,66.13
2018-06-24T09:20:38.402Z,65.14
2018-06-24T09:21:38.424Z,64.85
2018-06-24T09:22:38.440Z,65.55
2018-06-24T09:23:38.457Z,65.64
2018-06-24T09:24:38.475Z,66.60
2018-06-24T09:25:38.495Z,70.42
2018-06-24T09:26:38.511Z,66.38
2018-06-24T09:27:38.566Z,67.52
2018-06-24T09:28:38.550Z,71.19
2018-06-24T09:29:38.566Z,81.55
2018-06-24T09:30:38.584Z,70.30
2018-06-24T09:31:38.603Z,63.89
2018-06-24T09:32:38.621Z,62.04
2018-06-24T09:33:38.638Z,62.33
2018-06-24T09:34:38.657Z,63.93
2018-06-24T09:35:38.684Z,65.48
2018-06-24T09:36:38.695Z,65.36
2018-06-24T09:37:38.711Z,66.54
2018-06-24T09:38:38.731Z,68.26
2018-06-24T09:39:38.754Z,67.69
2018-06-24T09:40:38.767Z,67.11
2018-06-24T09:41:38.788Z,64.72
2018-06-24T09:42:38.809Z,66.54
2018-06-24T09:43:38.824Z,63.48
2018-06-24T09:44:38.843Z,63.67
2018-06-24T09:45:38.860Z,67.21
2018-06-24T09:46:38.880Z,66.92
2018-06-24T09:47:38.898Z,66.00
2018-06-24T09:48:38.918Z,69.64
2018-06-24T09:49:38.938Z,64.79
2018-06-24T09:50:38.955Z,64.09
2018-06-24T09:51:38.978Z,59.78
2018-06-24T09:52:38.992Z,60.45
2018-06-24T09:53:39.011Z,63.48
2018-06-24T09:54:39.030Z,63.57
2018-06-24T09:55:39.061Z,62.33
2018-06-24T09:56:39.072Z,64.15
2018-06-24T09:57:39.089Z,65.77
2018-06-24T09:58:39.105Z,68.07
2018-06-24T09:59:39.125Z,65.61
2018-06-24T10:00:39.144Z,63.51
2018-06-24T10:01:39.164Z,61.76
2018-06-24T10:02:39.182Z,65.81
2018-06-24T10:03:39.203Z,65.14
2018-06-24T10:04:39.221Z,60.83
2018-06-24T10:05:39.236Z,60.93
2018-06-24T10:06:39.257Z,63.80
2018-06-24T10:07:39.277Z,60.19
2018-06-24T10:08:39.296Z,59.49
2018-06-24T10:09:39.316Z,60.16
2018-06-24T10:10:39.333Z,57.10
2018-06-24T10:11:39.356Z,60.55
2018-06-24T10:12:39.372Z,60.77
2018-06-24T10:13:39.392Z,62.11
2018-06-24T10:14:39.409Z,59.52
2018-06-24T10:15:39.430Z,63.00
2018-06-24T10:16:39.448Z,61.85
2018-06-24T10:17:39.469Z,56.65
2018-06-24T10:18:39.487Z,56.27
2018-06-24T10:19:39.505Z,58.76
2018-06-24T10:20:39.524Z,58.66
2018-06-24T10:21:39.544Z,56.72
2018-06-24T10:22:39.562Z,60.38
2018-06-24T10:23:39.583Z,61.85
2018-06-24T10:24:39.603Z,59.94
2018-06-24T10:25:39.622Z,52.66
2018-06-24T10:26:39.643Z,51.22
2018-06-24T10:27:39.662Z,59.58
2018-06-24T10:28:39.679Z,54.03
2018-06-24T10:29:39.704Z,53.14
2018-06-24T10:30:39.719Z,53.71
2018-06-24T10:31:39.739Z,60.54
2018-06-24T10:32:39.762Z,55.97
2018-06-24T10:33:39.778Z,48.21
2018-06-24T10:34:39.796Z,47.61
2018-06-24T10:35:39.819Z,53.58
2018-06-24T10:36:39.836Z,52.04
2018-06-24T10:37:39.855Z,48.28
2018-06-24T10:38:39.882Z,55.58
2018-06-24T10:39:39.896Z,56.07
2018-06-24T10:40:39.917Z,51.40
2018-06-24T10:41:39.936Z,47.53
2018-06-24T10:42:39.956Z,47.73
2018-06-24T10:43:39.976Z,50.99
2018-06-24T10:44:39.995Z,50.00
2018-06-24T10:45:40.032Z,47.63
2018-06-24T10:46:40.036Z,47.03
2018-06-24T10:47:40.060Z,50.29
2018-06-24T10:48:40.079Z,51.63
2018-06-24T10:49:40.098Z,51.92
2018-06-24T10:50:40.118Z,53.16
2018-06-24T10:51:40.136Z,53.74
2018-06-24T10:52:40.159Z,50.20
2018-06-24T10:53:40.181Z,53.38
2018-06-24T10:54:40.199Z,54.72
2018-06-24T10:55:40.219Z,47.37
2018-06-24T10:56:40.240Z,45.83
2018-06-24T10:57:40.260Z,45.86
2018-06-24T10:58:40.279Z,45.95
2018-06-24T10:59:40.300Z,47.10
2018-06-24T11:00:40.322Z,47.39
2018-06-24T11:01:40.340Z,50.78
2018-06-24T11:02:40.360Z,44.73
2018-06-24T11:03:40.382Z,43.10
2018-06-24T11:04:40.406Z,45.88
2018-06-24T11:05:40.426Z,42.52
2018-06-24T11:06:40.449Z,42.30
2018-06-24T11:07:40.474Z,42.04
2018-06-24T11:08:40.486Z,42.11
2018-06-24T11:09:40.551Z,43.65
2018-06-24T11:10:40.529Z,45.21
2018-06-24T11:11:40.550Z,44.73
2018-06-24T11:12:40.573Z,42.33
2018-06-24T11:13:40.593Z,42.21
2018-06-24T11:14:40.614Z,40.16
2018-06-24T11:15:40.637Z,42.34
2018-06-24T11:16:40.657Z,45.79
2018-06-24T11:17:40.679Z,47.49
2018-06-24T11:18:40.701Z,50.87
2018-06-24T11:19:40.719Z,48.54
2018-06-24T11:20:40.744Z,47.71
2018-06-24T11:21:40.762Z,45.89
2018-06-24T11:22:40.784Z,47.80
2018-06-24T11:23:40.804Z,46.94
2018-06-24T11:24:40.825Z,48.57
2018-06-24T11:25:40.845Z,50.12
2018-06-24T11:26:40.868Z,46.00
2018-06-24T11:27:40.886Z,43.26
2018-06-24T11:28:40.908Z,42.70
2018-06-24T11:29:40.927Z,45.67
2018-06-24T11:30:40.948Z,41.27
2018-06-24T11:31:40.970Z,42.05
2018-06-24T11:32:40.991Z,43.32
2018-06-24T11:33:41.013Z,40.06
2018-06-24T11:34:41.031Z,40.25
2018-06-24T11:35:41.052Z,39.48
2018-06-24T11:36:41.075Z,40.84
2018-06-24T11:37:41.093Z,40.27
2018-06-24T11:38:41.112Z,39.10
2018-06-24T11:39:41.134Z,39.68
2018-06-24T11:40:41.156Z,43.32
2018-06-24T11:41:41.176Z,41.60
2018-06-24T11:42:41.195Z,43.60
2018-06-24T11:43:41.217Z,44.18
2018-06-24T11:44:41.237Z,42.38
2018-06-24T11:45:41.262Z,42.10
2018-06-24T11:46:41.279Z,42.19
2018-06-24T11:47:41.300Z,42.38
2018-06-24T11:48:41.319Z,40.83
2018-06-24T11:49:41.341Z,43.03
2018-06-24T11:50:41.363Z,41.00
2018-06-24T11:51:41.391Z,42.34
2018-06-24T11:52:41.404Z,43.30
2018-06-24T11:53:41.424Z,44.35
2018-06-24T11:54:41.446Z,47.15
2018-06-24T11:55:41.466Z,45.81
2018-06-24T11:56:41.486Z,42.14
2018-06-24T11:57:41.512Z,41.69
2018-06-24T11:58:41.530Z,45.04
2018-06-24T11:59:41.551Z,43.60
2018-06-24T12:00:41.575Z,41.57
2018-06-24T12:01:41.592Z,40.71
2018-06-24T12:02:41.648Z,42.14
2018-06-24T12:03:41.635Z,43.87
2018-06-24T12:04:41.656Z,42.82
2018-06-24T12:05:41.679Z,41.65
2018-06-24T12:06:41.698Z,41.94
2018-06-24T12:07:41.722Z,43.47
2018-06-24T12:08:41.740Z,44.71
2018-06-24T12:09:41.783Z,45.67
2018-06-24T12:10:41.784Z,47.71
2018-06-24T12:11:41.803Z,48.09
2018-06-24T12:12:41.824Z,45.02
2018-06-24T12:13:41.874Z,43.10
2018-06-24T12:14:41.869Z,44.40
2018-06-24T12:15:41.885Z,44.12
2018-06-24T12:16:41.912Z,45.94
2018-06-24T12:17:41.925Z,44.76
2018-06-24T12:18:41.949Z,45.72
2018-06-24T12:19:41.970Z,45.72
2018-06-24T12:20:41.991Z,46.39
2018-06-24T12:21:42.013Z,47.34
2018-06-24T12:22:42.030Z,49.19
2018-06-24T12:23:42.053Z,46.67
2018-06-24T12:24:42.071Z,47.56
2018-06-24T12:25:42.091Z,48.52
2018-06-24T12:26:42.112Z,53.91
2018-06-24T12:27:43.129Z,49.98
2018-06-24T12:28:42.153Z,51.54
2018-06-24T12:29:42.172Z,46.53
2018-06-24T12:30:42.208Z,44.62
2018-06-24T12:31:42.211Z,46.53
2018-06-24T12:32:42.231Z,49.24
2018-06-24T12:33:42.250Z,48.57
2018-06-24T12:34:42.278Z,47.71
2018-06-24T12:35:42.292Z,48.95
2018-06-24T12:36:42.312Z,47.92
2018-06-24T12:37:42.332Z,46.08
2018-06-24T12:38:42.353Z,46.77
2018-06-24T12:39:42.377Z,45.12
2018-06-24T12:40:42.394Z,45.00
2018-06-24T12:41:42.414Z,50.67
2018-06-24T12:42:42.435Z,47.51
2018-06-24T12:43:42.458Z,48.30
2018-06-24T12:44:42.477Z,45.02
2018-06-24T12:45:42.496Z,45.31
2018-06-24T12:46:42.516Z,45.38
2018-06-24T12:47:42.541Z,45.94
2018-06-24T12:48:42.558Z,47.68
2018-06-24T12:49:42.579Z,47.20
2018-06-24T12:50:42.601Z,46.91
2018-06-24T12:51:42.621Z,46.25
2018-06-24T12:52:42.684Z,50.87